sensor_id;sensor_type;location;lat;lon;timestamp;pressure;altitude;pressure_sealevel;temperature
65272;BMP280;51868;48.812;8.198;2022-10-28T04:29:01;102580.78;;;14.68
65272;BMP280;51868;48.812;8.198;2022-10-28T04:31:29;102584.50;;;14.63
65272;BMP280;51868;48.812;8.198;2022-10-28T04:33:59;102593.34;;;14.61
65272;BMP280;51868;48.812;8.198;2022-10-28T04:36:27;102599.44;;;14.58
65272;BMP280;51868;48.812;8.198;2022-10-28T04:38:56;102613.97;;;14.56
65272;BMP280;51868;48.812;8.198;2022-10-28T04:41:26;102605.53;;;14.56
65272;BMP280;51868;48.812;8.198;2022-10-28T04:43:54;102597.31;;;14.54
65272;BMP280;51868;48.812;8.198;2022-10-28T04:46:24;102588.31;;;14.57
65272;BMP280;51868;48.812;8.198;2022-10-28T04:48:51;102587.44;;;14.62
65272;BMP280;51868;48.812;8.198;2022-10-28T04:51:19;102592.88;;;14.64
65272;BMP280;51868;48.812;8.198;2022-10-28T04:53:46;102589.31;;;14.68
65272;BMP280;51868;48.812;8.198;2022-10-28T04:56:14;102580.53;;;14.70
65272;BMP280;51868;48.812;8.198;2022-10-28T04:58:42;102574.63;;;14.72
65272;BMP280;51868;48.812;8.198;2022-10-28T05:01:10;102568.53;;;14.74
65272;BMP280;51868;48.812;8.198;2022-10-28T05:03:39;102562.78;;;14.75
65272;BMP280;51868;48.812;8.198;2022-10-28T05:06:06;102570.91;;;14.77
65272;BMP280;51868;48.812;8.198;2022-10-28T05:08:34;102599.38;;;14.77
65272;BMP280;51868;48.812;8.198;2022-10-28T05:11:02;102579.09;;;14.79
65272;BMP280;51868;48.812;8.198;2022-10-28T05:13:32;102579.09;;;14.79
65272;BMP280;51868;48.812;8.198;2022-10-28T05:16:00;102576.41;;;14.78
65272;BMP280;51868;48.812;8.198;2022-10-28T05:18:28;102577.47;;;14.72
65272;BMP280;51868;48.812;8.198;2022-10-28T05:20:58;102606.34;;;14.68
65272;BMP280;51868;48.812;8.198;2022-10-28T05:23:26;102626.72;;;14.65
65272;BMP280;51868;48.812;8.198;2022-10-28T05:25:56;102621.44;;;14.63
65272;BMP280;51868;48.812;8.198;2022-10-28T05:28:24;102630.44;;;14.60
65272;BMP280;51868;48.812;8.198;2022-10-28T05:30:52;102613.72;;;14.58
65272;BMP280;51868;48.812;8.198;2022-10-28T05:33:19;102619.56;;;14.57
65272;BMP280;51868;48.812;8.198;2022-10-28T05:35:47;102623.03;;;14.53
65272;BMP280;51868;48.812;8.198;2022-10-28T05:38:16;102611.53;;;14.54
65272;BMP280;51868;48.812;8.198;2022-10-28T05:40:44;102622.97;;;14.53
65272;BMP280;51868;48.812;8.198;2022-10-28T05:43:11;102623.38;;;14.51
65272;BMP280;51868;48.812;8.198;2022-10-28T05:45:39;102624.09;;;14.46
65272;BMP280;51868;48.812;8.198;2022-10-28T05:48:07;102612.88;;;14.45
65272;BMP280;51868;48.812;8.198;2022-10-28T05:50:38;102625.13;;;14.39
65272;BMP280;51868;48.812;8.198;2022-10-28T05:53:05;102639.72;;;14.37
65272;BMP280;51868;48.812;8.198;2022-10-28T05:55:34;102636.97;;;14.36
65272;BMP280;51868;48.812;8.198;2022-10-28T05:58:13;102639.81;;;14.36
65272;BMP280;51868;48.812;8.198;2022-10-28T06:00:40;102648.81;;;14.33
65272;BMP280;51868;48.812;8.198;2022-10-28T06:03:11;102666.31;;;14.30
65272;BMP280;51868;48.812;8.198;2022-10-28T06:05:41;102660.66;;;14.30
65272;BMP280;51868;48.812;8.198;2022-10-28T06:08:10;102649.06;;;14.32
65272;BMP280;51868;48.812;8.198;2022-10-28T06:10:48;102637.13;;;14.35
65272;BMP280;51868;48.812;8.198;2022-10-28T06:13:16;102648.72;;;14.34
65272;BMP280;51868;48.812;8.198;2022-10-28T06:15:49;102651.81;;;14.32
65272;BMP280;51868;48.812;8.198;2022-10-28T06:18:17;102660.50;;;14.31
65272;BMP280;51868;48.812;8.198;2022-10-28T06:20:50;102657.97;;;14.29
65272;BMP280;51868;48.812;8.198;2022-10-28T06:23:18;102649.59;;;14.28
65272;BMP280;51868;48.812;8.198;2022-10-28T06:25:47;102652.28;;;14.29
65272;BMP280;51868;48.812;8.198;2022-10-28T06:28:15;102655.28;;;14.28
65272;BMP280;51868;48.812;8.198;2022-10-28T06:30:46;102654.97;;;14.30
65272;BMP280;51868;48.812;8.198;2022-10-28T06:33:14;102655.22;;;14.29
65272;BMP280;51868;48.812;8.198;2022-10-28T06:35:42;102666.66;;;14.28
65272;BMP280;51868;48.812;8.198;2022-10-28T06:38:09;102657.66;;;14.31
65272;BMP280;51868;48.812;8.198;2022-10-28T06:40:37;102660.34;;;14.32
65272;BMP280;51868;48.812;8.198;2022-10-28T06:43:08;102654.56;;;14.33
65272;BMP280;51868;48.812;8.198;2022-10-28T06:45:38;102654.25;;;14.35
65272;BMP280;51868;48.812;8.198;2022-10-28T06:48:05;102653.84;;;14.37
65272;BMP280;51868;48.812;8.198;2022-10-28T06:50:34;102653.28;;;14.41
65272;BMP280;51868;48.812;8.198;2022-10-28T06:53:04;102661.41;;;14.43
65272;BMP280;51868;48.812;8.198;2022-10-28T06:55:31;102669.69;;;14.45
65272;BMP280;51868;48.812;8.198;2022-10-28T06:58:02;102663.63;;;14.48
65272;BMP280;51868;48.812;8.198;2022-10-28T07:00:35;102659.97;;;14.53
65272;BMP280;51868;48.812;8.198;2022-10-28T07:03:03;102650.97;;;14.56
65272;BMP280;51868;48.812;8.198;2022-10-28T07:05:30;102653.47;;;14.58
65272;BMP280;51868;48.812;8.198;2022-10-28T07:08:00;102638.81;;;14.61
65272;BMP280;51868;48.812;8.198;2022-10-28T07:10:28;102644.41;;;14.61
65272;BMP280;51868;48.812;8.198;2022-10-28T07:12:56;102626.97;;;14.64
65272;BMP280;51868;48.812;8.198;2022-10-28T07:15:25;102629.06;;;14.68
65272;BMP280;51868;48.812;8.198;2022-10-28T07:17:55;102619.97;;;14.72
65272;BMP280;51868;48.812;8.198;2022-10-28T07:20:25;102628.34;;;14.73
65272;BMP280;51868;48.812;8.198;2022-10-28T07:22:57;102625.59;;;14.73
65272;BMP280;51868;48.812;8.198;2022-10-28T07:25:31;102637.19;;;14.71
65272;BMP280;51868;48.812;8.198;2022-10-28T07:28:02;102631.34;;;14.72
65272;BMP280;51868;48.812;8.198;2022-10-28T07:30:38;102639.53;;;14.74
65272;BMP280;51868;48.812;8.198;2022-10-28T07:33:21;102624.63;;;14.79
65272;BMP280;51868;48.812;8.198;2022-10-28T07:35:52;102618.53;;;14.81
65272;BMP280;51868;48.812;8.198;2022-10-28T07:38:20;102606.69;;;14.84
65272;BMP280;51868;48.812;8.198;2022-10-28T07:40:48;102605.88;;;14.89
65272;BMP280;51868;48.812;8.198;2022-10-28T07:43:18;102594.03;;;14.92
65272;BMP280;51868;48.812;8.198;2022-10-28T07:45:46;102587.63;;;14.97
65272;BMP280;51868;48.812;8.198;2022-10-28T07:48:13;102575.75;;;15.00
65272;BMP280;51868;48.812;8.198;2022-10-28T07:50:42;102577.94;;;15.04
65272;BMP280;51868;48.812;8.198;2022-10-28T07:53:10;102580.38;;;15.07
65272;BMP280;51868;48.812;8.198;2022-10-28T07:55:38;102579.50;;;15.12
65272;BMP280;51868;48.812;8.198;2022-10-28T07:58:06;102570.41;;;15.16
65272;BMP280;51868;48.812;8.198;2022-10-28T08:00:33;102581.28;;;15.19
65272;BMP280;51868;48.812;8.198;2022-10-28T08:03:01;102577.94;;;15.22
65272;BMP280;51868;48.812;8.198;2022-10-28T08:05:29;102577.22;;;15.27
65272;BMP280;51868;48.812;8.198;2022-10-28T08:07:59;102554.06;;;15.29
65272;BMP280;51868;48.812;8.198;2022-10-28T08:10:26;102539.13;;;15.34
65272;BMP280;51868;48.812;8.198;2022-10-28T08:12:55;102532.38;;;15.40
65272;BMP280;51868;48.812;8.198;2022-10-28T08:15:22;102519.94;;;15.47
65272;BMP280;51868;48.812;8.198;2022-10-28T08:17:51;102498.84;;;15.55
65272;BMP280;51868;48.812;8.198;2022-10-28T08:20:19;102486.47;;;15.61
65272;BMP280;51868;48.812;8.198;2022-10-28T08:22:47;102471.44;;;15.66
65272;BMP280;51868;48.812;8.198;2022-10-28T08:25:18;102467.88;;;15.71
65272;BMP280;51868;48.812;8.198;2022-10-28T08:27:46;102455.69;;;15.76
65272;BMP280;51868;48.812;8.198;2022-10-28T08:30:14;102434.81;;;15.82
65272;BMP280;51868;48.812;8.198;2022-10-28T08:32:42;102430.53;;;15.90
65272;BMP280;51868;48.812;8.198;2022-10-28T08:35:10;102417.69;;;16.00
65272;BMP280;51868;48.812;8.198;2022-10-28T08:37:38;102393.44;;;16.09
65272;BMP280;51868;48.812;8.198;2022-10-28T08:40:10;102400.47;;;16.18
65272;BMP280;51868;48.812;8.198;2022-10-28T08:42:44;102384.75;;;16.27
65272;BMP280;51868;48.812;8.198;2022-10-28T08:45:19;102363.44;;;16.36
65272;BMP280;51868;48.812;8.198;2022-10-28T08:48:10;102344.63;;;16.47
65272;BMP280;51868;48.812;8.198;2022-10-28T08:50:44;102322.88;;;16.58
65272;BMP280;51868;48.812;8.198;2022-10-28T08:53:18;102294.25;;;16.76
65272;BMP280;51868;48.812;8.198;2022-10-28T08:55:49;102254.34;;;16.94
65272;BMP280;51868;48.812;8.198;2022-10-28T08:58:21;102232.75;;;17.04
65272;BMP280;51868;48.812;8.198;2022-10-28T09:00:53;102229.13;;;17.09
65272;BMP280;51868;48.812;8.198;2022-10-28T09:03:23;102234.38;;;17.11
65272;BMP280;51868;48.812;8.198;2022-10-28T09:05:56;102228.63;;;17.12
65272;BMP280;51868;48.812;8.198;2022-10-28T09:08:28;102231.47;;;17.12
65272;BMP280;51868;48.812;8.198;2022-10-28T09:11:07;102231.22;;;17.13
65272;BMP280;51868;48.812;8.198;2022-10-28T09:13:50;102224.94;;;17.17
65272;BMP280;51868;48.812;8.198;2022-10-28T09:16:27;102215.72;;;17.21
65272;BMP280;51868;48.812;8.198;2022-10-28T09:19:03;102203.84;;;17.24
65272;BMP280;51868;48.812;8.198;2022-10-28T09:21:40;102203.22;;;17.28
65272;BMP280;51868;48.812;8.198;2022-10-28T09:24:16;102202.63;;;17.31
65272;BMP280;51868;48.812;8.198;2022-10-28T09:26:52;102202.03;;;17.35
65272;BMP280;51868;48.812;8.198;2022-10-28T09:29:34;102210.13;;;17.37
65272;BMP280;51868;48.812;8.198;2022-10-28T09:32:16;102203.66;;;17.42
65272;BMP280;51868;48.812;8.198;2022-10-28T09:34:48;102199.34;;;17.51
65272;BMP280;51868;48.812;8.198;2022-10-28T09:37:20;102172.34;;;17.76
65272;BMP280;51868;48.812;8.198;2022-10-28T09:39:50;102110.19;;;18.07
65272;BMP280;51868;48.812;8.198;2022-10-28T09:42:22;102085.88;;;18.16
65272;BMP280;51868;48.812;8.198;2022-10-28T09:44:56;102031.75;;;18.50
65272;BMP280;51868;48.812;8.198;2022-10-28T09:47:29;101920.53;;;19.17
65272;BMP280;51868;48.812;8.198;2022-10-28T09:50:00;101831.53;;;19.70
65272;BMP280;51868;48.812;8.198;2022-10-28T09:52:30;101743.09;;;20.19
65272;BMP280;51868;48.812;8.198;2022-10-28T09:55:06;101665.81;;;20.69
65272;BMP280;51868;48.812;8.198;2022-10-28T09:57:35;101598.63;;;21.10
65272;BMP280;51868;48.812;8.198;2022-10-28T10:00:06;101551.47;;;21.35
65272;BMP280;51868;48.812;8.198;2022-10-28T10:02:35;101486.75;;;21.77
65272;BMP280;51868;48.812;8.198;2022-10-28T10:05:10;101505.03;;;21.70
65272;BMP280;51868;48.812;8.198;2022-10-28T10:07:45;101492.16;;;21.78
65272;BMP280;51868;48.812;8.198;2022-10-28T10:10:16;101535.25;;;21.61
65272;BMP280;51868;48.812;8.198;2022-10-28T10:12:46;101561.22;;;21.43
65272;BMP280;51868;48.812;8.198;2022-10-28T10:15:26;101589.25;;;21.30
65272;BMP280;51868;48.812;8.198;2022-10-28T10:17:56;101560.47;;;21.47
65272;BMP280;51868;48.812;8.198;2022-10-28T10:20:27;101546.72;;;21.60
65272;BMP280;51868;48.812;8.198;2022-10-28T10:22:54;101547.47;;;21.56
65272;BMP280;51868;48.812;8.198;2022-10-28T10:25:25;101579.13;;;21.39
65272;BMP280;51868;48.812;8.198;2022-10-28T10:27:57;101605.34;;;21.20
65272;BMP280;51868;48.812;8.198;2022-10-28T10:30:29;101640.56;;;20.98
65272;BMP280;51868;48.812;8.198;2022-10-28T10:32:57;101668.28;;;20.87
65272;BMP280;51868;48.812;8.198;2022-10-28T10:35:27;101690.41;;;20.74
65272;BMP280;51868;48.812;8.198;2022-10-28T10:37:57;101712.19;;;20.64
65272;BMP280;51868;48.812;8.198;2022-10-28T10:40:27;101704.88;;;20.58
65272;BMP280;51868;48.812;8.198;2022-10-28T10:43:36;101714.31;;;20.53
65272;BMP280;51868;48.812;8.198;2022-10-28T10:46:15;101707.91;;;20.57
65272;BMP280;51868;48.812;8.198;2022-10-28T10:48:43;101642.44;;;20.88
65272;BMP280;51868;48.812;8.198;2022-10-28T10:51:17;101587.75;;;21.23
65272;BMP280;51868;48.812;8.198;2022-10-28T10:53:50;101519.06;;;21.56
65272;BMP280;51868;48.812;8.198;2022-10-28T10:56:23;101463.72;;;21.94
65272;BMP280;51868;48.812;8.198;2022-10-28T10:58:53;101422.06;;;22.19
65272;BMP280;51868;48.812;8.198;2022-10-28T11:20:22;101413.81;;;22.17
65272;BMP280;51868;48.812;8.198;2022-10-28T11:25:45;101451.66;;;21.97
65272;BMP280;51868;48.812;8.198;2022-10-28T11:28:37;101439.53;;;22.01
65272;BMP280;51868;48.812;8.198;2022-10-28T11:31:22;101429.19;;;22.11
65272;BMP280;51868;48.812;8.198;2022-10-28T11:34:08;101349.53;;;22.56
65272;BMP280;51868;48.812;8.198;2022-10-28T11:36:44;101285.19;;;22.96
65272;BMP280;51868;48.812;8.198;2022-10-28T11:39:25;101285.50;;;22.94
65272;BMP280;51868;48.812;8.198;2022-10-28T11:42:10;101245.09;;;23.27
65272;BMP280;51868;48.812;8.198;2022-10-28T11:44:44;101209.28;;;23.50
65272;BMP280;51868;48.812;8.198;2022-10-28T11:47:38;101164.44;;;23.76
65272;BMP280;51868;48.812;8.198;2022-10-28T11:50:30;101120.75;;;23.96
65272;BMP280;51868;48.812;8.198;2022-10-28T11:56:12;101053.44;;;24.49
65272;BMP280;51868;48.812;8.198;2022-10-28T11:58:48;101009.81;;;24.68
65272;BMP280;51868;48.812;8.198;2022-10-28T12:01:33;100966.06;;;24.88
65272;BMP280;51868;48.812;8.198;2022-10-28T12:04:11;100927.16;;;25.12
65272;BMP280;51868;48.812;8.198;2022-10-28T12:06:58;100885.50;;;25.36
65272;BMP280;51868;48.812;8.198;2022-10-28T12:09:37;100862.31;;;25.52
65272;BMP280;51868;48.812;8.198;2022-10-28T12:12:15;100851.06;;;25.65
65272;BMP280;51868;48.812;8.198;2022-10-28T12:14:54;100834.50;;;25.77
65272;BMP280;51868;48.812;8.198;2022-10-28T12:17:30;100794.13;;;25.94
65272;BMP280;51868;48.812;8.198;2022-10-28T12:20:09;100744.81;;;26.12
65272;BMP280;51868;48.812;8.198;2022-10-28T12:22:45;100726.28;;;26.33
65272;BMP280;51868;48.812;8.198;2022-10-28T12:25:20;100719.13;;;26.40
65272;BMP280;51868;48.812;8.198;2022-10-28T12:27:55;100682.31;;;26.54
65272;BMP280;51868;48.812;8.198;2022-10-28T12:30:29;100657.47;;;26.64
65272;BMP280;51868;48.812;8.198;2022-10-28T12:33:04;100642.84;;;26.66
65272;BMP280;51868;48.812;8.198;2022-10-28T12:35:40;100622.50;;;26.82
65272;BMP280;51868;48.812;8.198;2022-10-28T12:38:19;100596.47;;;26.98
65272;BMP280;51868;48.812;8.198;2022-10-28T12:40:52;100548.44;;;27.23
65272;BMP280;51868;48.812;8.198;2022-10-28T12:43:23;100454.31;;;27.79
65272;BMP280;51868;48.812;8.198;2022-10-28T12:45:56;100297.88;;;28.73
65272;BMP280;51868;48.812;8.198;2022-10-28T12:48:29;100132.72;;;29.78
65272;BMP280;51868;48.812;8.198;2022-10-28T12:51:02;99980.44;;;30.76
65272;BMP280;51868;48.812;8.198;2022-10-28T12:53:34;99839.34;;;31.72
65272;BMP280;51868;48.812;8.198;2022-10-28T12:56:07;99663.00;;;32.84
65272;BMP280;51868;48.812;8.198;2022-10-28T12:58:48;99479.09;;;33.89
65272;BMP280;51868;48.812;8.198;2022-10-28T13:01:21;99356.44;;;34.75
65272;BMP280;51868;48.812;8.198;2022-10-28T13:04:00;99270.81;;;35.23
65272;BMP280;51868;48.812;8.198;2022-10-28T13:06:51;99249.97;;;35.39
65272;BMP280;51868;48.812;8.198;2022-10-28T13:09:36;99266.75;;;35.29
65272;BMP280;51868;48.812;8.198;2022-10-28T13:22:32;99187.78;;;35.84
65272;BMP280;51868;48.812;8.198;2022-10-28T13:25:16;99170.59;;;35.97
65272;BMP280;51868;48.812;8.198;2022-10-28T13:27:54;99197.31;;;35.80
65272;BMP280;51868;48.812;8.198;2022-10-28T13:30:23;99220.41;;;35.67
65272;BMP280;51868;48.812;8.198;2022-10-28T13:33:02;99572.94;;;33.53
65272;BMP280;51868;48.812;8.198;2022-10-28T13:35:33;99895.31;;;31.50
65272;BMP280;51868;48.812;8.198;2022-10-28T13:38:08;100160.56;;;29.94
65272;BMP280;51868;48.812;8.198;2022-10-28T13:41:07;100364.50;;;28.66
65272;BMP280;51868;48.812;8.198;2022-10-28T13:50:35;100737.66;;;26.33
65272;BMP280;51868;48.812;8.198;2022-10-28T13:56:21;100792.13;;;25.90
65272;BMP280;51868;48.812;8.198;2022-10-28T13:58:51;100859.66;;;25.51
65272;BMP280;51868;48.812;8.198;2022-10-28T14:01:47;100928.81;;;25.04
65272;BMP280;51868;48.812;8.198;2022-10-28T14:04:35;100979.38;;;24.64
65272;BMP280;51868;48.812;8.198;2022-10-28T14:07:25;101031.22;;;24.32
65272;BMP280;51868;48.812;8.198;2022-10-28T14:09:57;101066.91;;;24.10
65272;BMP280;51868;48.812;8.198;2022-10-28T14:12:46;101093.16;;;23.92
65272;BMP280;51868;48.812;8.198;2022-10-28T14:15:21;101068.03;;;24.04
65272;BMP280;51868;48.812;8.198;2022-10-28T14:17:52;101054.66;;;24.14
65272;BMP280;51868;48.812;8.198;2022-10-28T14:20:49;101041.88;;;24.22
65272;BMP280;51868;48.812;8.198;2022-10-28T14:30:17;101055.88;;;24.08
65272;BMP280;51868;48.812;8.198;2022-10-28T14:33:17;101080.81;;;23.97
65272;BMP280;51868;48.812;8.198;2022-10-28T14:35:47;101103.69;;;23.82
65272;BMP280;51868;48.812;8.198;2022-10-28T14:41:41;101143.47;;;23.53
65272;BMP280;51868;48.812;8.198;2022-10-28T14:44:23;101156.63;;;23.44
65272;BMP280;51868;48.812;8.198;2022-10-28T14:47:13;101185.16;;;23.28
65272;BMP280;51868;48.812;8.198;2022-10-28T14:49:57;101192.31;;;23.21
65272;BMP280;51868;48.812;8.198;2022-10-28T14:52:28;101204.56;;;23.16
65272;BMP280;51868;48.812;8.198;2022-10-28T14:54:58;101205.38;;;23.12
65272;BMP280;51868;48.812;8.198;2022-10-28T14:57:30;101206.53;;;23.06
65272;BMP280;51868;48.812;8.198;2022-10-28T15:00:02;101231.03;;;22.97
65272;BMP280;51868;48.812;8.198;2022-10-28T15:02:34;101238.19;;;22.89
65272;BMP280;51868;48.812;8.198;2022-10-28T15:05:13;101251.22;;;22.80
65272;BMP280;51868;48.812;8.198;2022-10-28T15:07:42;101266.50;;;22.75
65272;BMP280;51868;48.812;8.198;2022-10-28T15:10:14;101273.94;;;22.66
65272;BMP280;51868;48.812;8.198;2022-10-28T15:12:46;101283.94;;;22.58
65272;BMP280;51868;48.812;8.198;2022-10-28T15:15:19;101296.25;;;22.53
65272;BMP280;51868;48.812;8.198;2022-10-28T15:17:48;101309.47;;;22.43
65272;BMP280;51868;48.812;8.198;2022-10-28T15:20:22;101317.09;;;22.33
65272;BMP280;51868;48.812;8.198;2022-10-28T15:23:11;101335.69;;;22.25
65272;BMP280;51868;48.812;8.198;2022-10-28T15:25:39;101348.59;;;22.17
65272;BMP280;51868;48.812;8.198;2022-10-28T15:28:09;101358.56;;;22.09
65272;BMP280;51868;48.812;8.198;2022-10-28T15:30:41;101374.41;;;22.00
65272;BMP280;51868;48.812;8.198;2022-10-28T15:33:26;101387.50;;;21.91
65272;BMP280;51868;48.812;8.198;2022-10-28T15:36:05;101403.81;;;21.80
65272;BMP280;51868;48.812;8.198;2022-10-28T15:38:40;101426.19;;;21.67
65272;BMP280;51868;48.812;8.198;2022-10-28T15:44:26;101461.44;;;21.45
65272;BMP280;51868;48.812;8.198;2022-10-28T15:46:57;101465.41;;;21.39
65272;BMP280;51868;48.812;8.198;2022-10-28T15:49:33;101472.16;;;21.34
65272;BMP280;51868;48.812;8.198;2022-10-28T15:52:30;101502.06;;;21.25
65272;BMP280;51868;48.812;8.198;2022-10-28T15:55:02;101509.44;;;21.16
65272;BMP280;51868;48.812;8.198;2022-10-28T15:57:47;101524.88;;;21.10
65272;BMP280;51868;48.812;8.198;2022-10-28T16:00:27;101534.81;;;21.02
65272;BMP280;51868;48.812;8.198;2022-10-28T16:03:00;101550.72;;;20.93
65272;BMP280;51868;48.812;8.198;2022-10-28T16:05:52;101572.00;;;20.85
65272;BMP280;51868;48.812;8.198;2022-10-28T16:08:23;101576.16;;;20.78
65272;BMP280;51868;48.812;8.198;2022-10-28T16:10:57;101591.03;;;20.74
65272;BMP280;51868;48.812;8.198;2022-10-28T16:13:31;101594.41;;;20.71
65272;BMP280;51868;48.812;8.198;2022-10-28T16:16:04;101586.38;;;20.69
65272;BMP280;51868;48.812;8.198;2022-10-28T16:18:41;101601.41;;;20.64
65272;BMP280;51868;48.812;8.198;2022-10-28T16:21:16;101616.81;;;20.58
65272;BMP280;51868;48.812;8.198;2022-10-28T16:23:48;101623.81;;;20.51
65272;BMP280;51868;48.812;8.198;2022-10-28T16:26:24;101630.88;;;20.43
65272;BMP280;51868;48.812;8.198;2022-10-28T16:28:52;101628.78;;;20.39
65272;BMP280;51868;48.812;8.198;2022-10-28T16:31:24;101644.00;;;20.33
65272;BMP280;51868;48.812;8.198;2022-10-28T16:33:54;101642.47;;;20.26
65272;BMP280;51868;48.812;8.198;2022-10-28T16:36:23;101657.59;;;20.21
65272;BMP280;51868;48.812;8.198;2022-10-28T16:38:53;101669.72;;;20.17
65272;BMP280;51868;48.812;8.198;2022-10-28T16:41:22;101682.09;;;20.11
65272;BMP280;51868;48.812;8.198;2022-10-28T16:43:50;101700.69;;;20.03
65272;BMP280;51868;48.812;8.198;2022-10-28T16:46:21;101707.28;;;19.98
65272;BMP280;51868;48.812;8.198;2022-10-28T16:48:49;101728.66;;;19.89
65272;BMP280;51868;48.812;8.198;2022-10-28T16:51:18;101732.50;;;19.84
65272;BMP280;51868;48.812;8.198;2022-10-28T16:53:47;101747.72;;;19.78
65272;BMP280;51868;48.812;8.198;2022-10-28T16:56:16;101760.16;;;19.72
65272;BMP280;51868;48.812;8.198;2022-10-28T16:58:47;101769.50;;;19.67
65272;BMP280;51868;48.812;8.198;2022-10-28T17:01:19;101784.91;;;19.61
65272;BMP280;51868;48.812;8.198;2022-10-28T17:03:47;101797.72;;;19.53
65272;BMP280;51868;48.812;8.198;2022-10-28T17:06:17;101806.69;;;19.50
65272;BMP280;51868;48.812;8.198;2022-10-28T17:08:44;101813.09;;;19.46
65272;BMP280;51868;48.812;8.198;2022-10-28T17:11:32;101825.47;;;19.40
65272;BMP280;51868;48.812;8.198;2022-10-28T17:14:00;101840.94;;;19.33
65272;BMP280;51868;48.812;8.198;2022-10-28T17:16:28;101856.31;;;19.27
65272;BMP280;51868;48.812;8.198;2022-10-28T17:18:55;101865.47;;;19.23
65272;BMP280;51868;48.812;8.198;2022-10-28T17:21:25;101863.09;;;19.21
65272;BMP280;51868;48.812;8.198;2022-10-28T17:23:55;101868.94;;;19.19
65272;BMP280;51868;48.812;8.198;2022-10-28T17:26:23;101886.81;;;19.15
65272;BMP280;51868;48.812;8.198;2022-10-28T17:28:52;101898.88;;;19.11
65272;BMP280;51868;48.812;8.198;2022-10-28T17:31:20;101896.59;;;19.08
65272;BMP280;51868;48.812;8.198;2022-10-28T17:33:52;101900.06;;;19.04
65272;BMP280;51868;48.812;8.198;2022-10-28T17:36:19;101914.72;;;19.02
65272;BMP280;51868;48.812;8.198;2022-10-28T17:38:51;101923.59;;;19.00
65272;BMP280;51868;48.812;8.198;2022-10-28T17:41:19;101929.63;;;18.98
65272;BMP280;51868;48.812;8.198;2022-10-28T17:43:50;101929.81;;;18.97
65272;BMP280;51868;48.812;8.198;2022-10-28T17:46:20;101944.72;;;18.92
65272;BMP280;51868;48.812;8.198;2022-10-28T17:48:48;101951.66;;;18.85
65272;BMP280;51868;48.812;8.198;2022-10-28T17:51:16;101972.81;;;18.78
65272;BMP280;51868;48.812;8.198;2022-10-28T17:53:46;101973.88;;;18.72
65272;BMP280;51868;48.812;8.198;2022-10-28T17:56:14;101998.03;;;18.64
65272;BMP280;51868;48.812;8.198;2022-10-28T17:58:44;102007.25;;;18.60
65272;BMP280;51868;48.812;8.198;2022-10-28T18:01:12;102013.13;;;18.59
65272;BMP280;51868;48.812;8.198;2022-10-28T18:03:44;102016.75;;;18.54
65272;BMP280;51868;48.812;8.198;2022-10-28T18:06:17;102029.00;;;18.49
65272;BMP280;51868;48.812;8.198;2022-10-28T18:08:44;102035.66;;;18.43
65272;BMP280;51868;48.812;8.198;2022-10-28T18:13:47;102039.47;;;18.38
65272;BMP280;51868;48.812;8.198;2022-10-28T18:16:18;102042.78;;;18.35
65272;BMP280;51868;48.812;8.198;2022-10-28T18:18:47;102045.97;;;18.33
65272;BMP280;51868;48.812;8.198;2022-10-28T18:21:16;102037.72;;;18.32
65272;BMP280;51868;48.812;8.198;2022-10-28T18:23:52;102061.22;;;18.27
65272;BMP280;51868;48.812;8.198;2022-10-28T18:26:32;102056.25;;;18.23
65272;BMP280;51868;48.812;8.198;2022-10-28T18:29:01;102068.06;;;18.21
65272;BMP280;51868;48.812;8.198;2022-10-28T18:31:36;102068.50;;;18.18
65272;BMP280;51868;48.812;8.198;2022-10-28T18:34:08;102069.13;;;18.14
65272;BMP280;51868;48.812;8.198;2022-10-28T18:36:38;102075.75;;;18.09
65272;BMP280;51868;48.812;8.198;2022-10-28T18:39:09;102090.66;;;18.05
65272;BMP280;51868;48.812;8.198;2022-10-28T18:41:39;102088.53;;;18.01
65272;BMP280;51868;48.812;8.198;2022-10-28T18:44:12;102092.25;;;17.96
65272;BMP280;51868;48.812;8.198;2022-10-28T18:46:42;102104.31;;;17.91
65272;BMP280;51868;48.812;8.198;2022-10-28T18:49:12;102113.28;;;17.89
65272;BMP280;51868;48.812;8.198;2022-10-28T18:51:40;102119.38;;;17.86
65272;BMP280;51868;48.812;8.198;2022-10-28T18:54:10;102122.75;;;17.83
65272;BMP280;51868;48.812;8.198;2022-10-28T18:56:40;102134.38;;;17.82
65272;BMP280;51868;48.812;8.198;2022-10-28T18:59:14;102131.81;;;17.80
65272;BMP280;51868;48.812;8.198;2022-10-28T19:01:44;102131.97;;;17.79
65272;BMP280;51868;48.812;8.198;2022-10-28T19:04:14;102143.44;;;17.79
65272;BMP280;51868;48.812;8.198;2022-10-28T19:06:42;102143.94;;;17.76
65272;BMP280;51868;48.812;8.198;2022-10-28T19:09:10;102144.28;;;17.74
65272;BMP280;51868;48.812;8.198;2022-10-28T19:11:40;102150.31;;;17.72
65272;BMP280;51868;48.812;8.198;2022-10-28T19:14:08;102162.13;;;17.69
65272;BMP280;51868;48.812;8.198;2022-10-28T19:16:37;102156.53;;;17.69
65272;BMP280;51868;48.812;8.198;2022-10-28T19:19:05;102165.41;;;17.66
65272;BMP280;51868;48.812;8.198;2022-10-28T19:21:40;102168.34;;;17.66
65272;BMP280;51868;48.812;8.198;2022-10-28T19:27:36;102180.91;;;17.59
65272;BMP280;51868;48.812;8.198;2022-10-28T19:30:11;102190.13;;;17.55
65272;BMP280;51868;48.812;8.198;2022-10-28T19:32:41;102199.16;;;17.52
65272;BMP280;51868;48.812;8.198;2022-10-28T19:35:09;102206.06;;;17.45
65272;BMP280;51868;48.812;8.198;2022-10-28T19:37:41;102206.22;;;17.44
65272;BMP280;51868;48.812;8.198;2022-10-28T19:40:09;102206.66;;;17.41
65272;BMP280;51868;48.812;8.198;2022-10-28T19:42:37;102209.59;;;17.40
65272;BMP280;51868;48.812;8.198;2022-10-28T19:45:07;102215.72;;;17.38
65272;BMP280;51868;48.812;8.198;2022-10-28T19:47:35;102222.00;;;17.34
65272;BMP280;51868;48.812;8.198;2022-10-28T19:50:03;102222.59;;;17.31
65272;BMP280;51868;48.812;8.198;2022-10-28T19:52:32;102231.63;;;17.28
65272;BMP280;51868;48.812;8.198;2022-10-28T20:10:10;102269.94;;;17.03
65272;BMP280;51868;48.812;8.198;2022-10-28T20:12:40;102275.53;;;17.03
65272;BMP280;51868;48.812;8.198;2022-10-28T20:15:18;102272.84;;;17.02